Terminal Aerodrome Forecast
Issued by NWS

Home | Current Version | Previous Version | Text Only | Print | Product List | Glossary On
Versions: 1 2 3 4 5 6 7 8 9 10 11 12 13 14 15 16 17 18
233
FTUS44 KBMX 121320 AAA
TAFTOI
TAF AMD
KTOI 121320Z 1213/1312 22005KT 3SM BR OVC005
     FM121500 28008KT P6SM OVC010
     FM121700 29011G18KT P6SM SCT025
     FM130000 32005KT P6SM SKC=

USA.gov is the U.S. government's official web portal to all federal, state and local government web resources and services.